| time (UTC) | temp C | wind direction | speed KPH | gust KPH | rain 1hr cm | rain 24hr cm | rain mn cm | humidity % | barometer mb |
| 20260508005509 | 13 | 239 | 6.4 | 9.7 | 0.00 | 0.00 | 0.00 | 65 | 1020.0 |
| 20260508005013 | 13 | 265 | 3.2 | 8.0 | 0.00 | 0.00 | 0.00 | 65 | 1020.0 |
| 20260508004513 | 13 | 199 | 1.6 | 3.2 | 0.00 | 0.00 | 0.00 | 70 | 1020.0 |
| 20260508004012 | 13 | 198 | 1.6 | 3.2 | 0.00 | 0.00 | 0.00 | 72 | 1020.0 |
| 20260508003509 | 13 | 226 | 1.6 | 3.2 | 0.00 | 0.00 | 0.00 | 73 | 1020.0 |
| 20260508003023 | 13 | 209 | 3.2 | 8.0 | 0.00 | 0.00 | 0.00 | 67 | 1020.0 |
| 20260508002510 | 13 | 226 | 3.2 | 4.8 | 0.00 | 0.00 | 0.00 | 67 | 1020.0 |
| 20260508002013 | 13 | 268 | 1.6 | 3.2 | 0.00 | 0.00 | 0.00 | 70 | 1020.0 |
| 20260508001518 | 13 | 259 | 3.2 | 3.2 | 0.00 | 0.00 | 0.00 | 68 | 1020.0 |
| 20260508000509 | 13 | 241 | 3.2 | 4.8 | 0.00 | 0.00 | 0.00 | 69 | 1020.0 |
| 20260507235510 | 12 | 249 | 3.2 | 4.8 | 0.00 | 0.00 | 0.00 | 69 | 1020.0 |
| 20260507235014 | 12 | 250 | 3.2 | 4.8 | 0.00 | 0.00 | 0.00 | 70 | 1020.0 |
| 20260507234512 | 13 | 245 | 3.2 | 3.2 | 0.00 | 0.00 | 0.00 | 69 | 1020.0 |
| 20260507234014 | 13 | 192 | 3.2 | 6.4 | 0.00 | 0.00 | 0.00 | 69 | 1020.0 |
| 20260507233509 | 13 | 287 | 9.7 | 11.3 | 0.00 | 0.00 | 0.00 | 69 | 1020.3 |
| 20260507232509 | 12 | 212 | 1.6 | 1.6 | 0.00 | 0.00 | 0.00 | 75 | 1020.3 |
| 20260507232012 | 12 | 208 | 1.6 | 4.8 | 0.00 | 0.00 | 0.00 | 73 | 1020.3 |
| 20260507231514 | 12 | 254 | 3.2 | 3.2 | 0.00 | 0.00 | 0.00 | 74 | 1020.3 |
| 20260507231013 | 13 | 194 | 1.6 | 4.8 | 0.00 | 0.00 | 0.00 | 75 | 1020.7 |
| 20260507230510 | 13 | 244 | 1.6 | 4.8 | 0.00 | 0.00 | 0.00 | 75 | 1020.7 |
| 20260507230032 | 13 | 235 | 1.6 | 4.8 | 0.00 | 0.00 | 0.00 | 75 | 1020.7 |
| 20260507225510 | 13 | 270 | 3.2 | 6.4 | 0.00 | 0.00 | 0.00 | 75 | 1020.7 |
| 20260507225013 | 13 | 266 | 3.2 | 4.8 | 0.00 | 0.00 | 0.00 | 74 | 1020.7 |
| 20260507224513 | 13 | 243 | 1.6 | 3.2 | 0.00 | 0.00 | 0.00 | 75 | 1020.7 |
| 20260507224013 | 13 | 277 | 1.6 | 3.2 | 0.00 | 0.00 | 0.00 | 75 | 1020.7 |
| 20260507223510 | 13 | 249 | 3.2 | 4.8 | 0.00 | 0.00 | 0.00 | 75 | 1020.7 |
| 20260507223023 | 13 | 260 | 3.2 | 6.4 | 0.00 | 0.00 | 0.00 | 75 | 1020.7 |
| 20260507222509 | 13 | 282 | 4.8 | 4.8 | 0.00 | 0.00 | 0.00 | 75 | 1020.7 |
| 20260507222013 | 13 | 212 | 1.6 | 3.2 | 0.00 | 0.00 | 0.00 | 77 | 1020.7 |
| 20260507221513 | 13 | 209 | 1.6 | 3.2 | 0.00 | 0.00 | 0.00 | 77 | 1020.7 |
| 20260507221015 | 13 | 217 | 3.2 | 3.2 | 0.00 | 0.00 | 0.00 | 77 | 1020.7 |
| 20260507220510 | 13 | 194 | 1.6 | 1.6 | 0.00 | 0.00 | 0.00 | 78 | 1020.7 |
| 20260507220034 | 13 | 258 | 3.2 | 3.2 | 0.00 | 0.00 | 0.00 | 77 | 1020.7 |
| 20260507215510 | 13 | 178 | 0.0 | 3.2 | 0.00 | 0.00 | 0.00 | 77 | 1020.7 |
| 20260507215013 | 13 | 276 | 3.2 | 3.2 | 0.00 | 0.00 | 0.00 | 78 | 1020.7 |
| 20260507214513 | 13 | 207 | 1.6 | 1.6 | 0.00 | 0.00 | 0.00 | 78 | 1020.7 |
| 20260507214014 | 13 | 243 | 1.6 | 3.2 | 0.00 | 0.00 | 0.00 | 78 | 1020.7 |
| 20260507213510 | 13 | 259 | 3.2 | 3.2 | 0.00 | 0.00 | 0.00 | 79 | 1020.7 |
| 20260507213025 | 13 | 200 | 0.0 | 0.0 | 0.00 | 0.00 | 0.00 | 78 | 1020.7 |
| 20260507212509 | 13 | 231 | 3.2 | 3.2 | 0.00 | 0.00 | 0.00 | 79 | 1020.7 |
| 20260507212014 | 13 | 207 | 3.2 | 6.4 | 0.00 | 0.00 | 0.00 | 80 | 1020.7 |
| 20260507211515 | 13 | 197 | 3.2 | 4.8 | 0.00 | 0.00 | 0.00 | 80 | 1020.7 |
| 20260507211014 | 13 | 275 | 3.2 | 6.4 | 0.00 | 0.00 | 0.00 | 79 | 1020.7 |
| 20260507210510 | 13 | 269 | 1.6 | 1.6 | 0.00 | 0.00 | 0.00 | 80 | 1020.7 |
| 20260507210033 | 13 | 232 | 1.6 | 3.2 | 0.00 | 0.00 | 0.00 | 81 | 1020.7 |
| 20260507205510 | 13 | 166 | 1.6 | 1.6 | 0.00 | 0.00 | 0.00 | 80 | 1020.7 |
| 20260507204513 | 13 | 181 | 3.2 | 3.2 | 0.00 | 0.00 | 0.00 | 80 | 1020.7 |
| 20260507204015 | 13 | 248 | 1.6 | 1.6 | 0.00 | 0.00 | 0.00 | 80 | 1020.7 |
| 20260507203510 | 13 | 196 | 1.6 | 3.2 | 0.00 | 0.00 | 0.00 | 82 | 1020.7 |
| 20260507203024 | 13 | 214 | 3.2 | 4.8 | 0.00 | 0.00 | 0.00 | 81 | 1020.7 |
| 20260507202510 | 13 | 180 | 1.6 | 4.8 | 0.00 | 0.00 | 0.00 | 81 | 1020.7 |
| 20260507202014 | 13 | 264 | 3.2 | 3.2 | 0.00 | 0.00 | 0.00 | 80 | 1020.7 |
| 20260507201513 | 15 | 186 | 0.0 | 1.6 | 0.00 | 0.00 | 0.00 | 81 | 1020.7 |
| 20260507201013 | 13 | 258 | 3.2 | 4.8 | 0.00 | 0.00 | 0.00 | 79 | 1020.3 |
| 20260507200039 | 15 | 179 | 1.6 | 1.6 | 0.00 | 0.00 | 0.00 | 80 | 1020.3 |
| 20260507195509 | 15 | 250 | 3.2 | 3.2 | 0.00 | 0.00 | 0.00 | 81 | 1020.3 |
| 20260507195013 | 15 | 221 | 6.4 | 6.4 | 0.00 | 0.00 | 0.00 | 80 | 1020.3 |
| 20260507194513 | 15 | 284 | 1.6 | 3.2 | 0.00 | 0.00 | 0.00 | 80 | 1020.7 |
| 20260507193510 | 15 | 256 | 1.6 | 3.2 | 0.00 | 0.00 | 0.00 | 80 | 1020.3 |
| 20260507192511 | 15 | 270 | 1.6 | 1.6 | 0.00 | 0.00 | 0.00 | 81 | 1020.3 |
| 20260507192014 | 15 | 246 | 3.2 | 6.4 | 0.00 | 0.00 | 0.00 | 80 | 1020.3 |
| 20260507191513 | 15 | 230 | 3.2 | 3.2 | 0.00 | 0.00 | 0.00 | 81 | 1020.3 |
| 20260507191015 | 15 | 247 | 3.2 | 3.2 | 0.00 | 0.00 | 0.00 | 81 | 1020.0 |
| 20260507190510 | 15 | 217 | 3.2 | 3.2 | 0.00 | 0.00 | 0.00 | 82 | 1020.0 |
| 20260507190034 | 15 | 180 | 3.2 | 3.2 | 0.00 | 0.00 | 0.00 | 79 | 1020.3 |
| 20260507185509 | 15 | 245 | 3.2 | 3.2 | 0.00 | 0.00 | 0.00 | 81 | 1020.3 |
| 20260507185014 | 15 | 189 | 3.2 | 3.2 | 0.00 | 0.00 | 0.00 | 83 | 1020.3 |
| 20260507184513 | 16 | 217 | 1.6 | 3.2 | 0.00 | 0.00 | 0.00 | 80 | 1020.3 |
| 20260507184013 | 16 | 282 | 3.2 | 4.8 | 0.00 | 0.00 | 0.00 | 77 | 1020.3 |
| 20260507183509 | 16 | 209 | 4.8 | 6.4 | 0.00 | 0.00 | 0.00 | 77 | 1020.3 |
| 20260507183025 | 16 | 246 | 3.2 | 3.2 | 0.00 | 0.00 | 0.00 | 80 | 1020.3 |
| 20260507182509 | 16 | 194 | 1.6 | 1.6 | 0.00 | 0.00 | 0.00 | 79 | 1020.3 |
| 20260507182013 | 16 | 197 | 3.2 | 4.8 | 0.00 | 0.00 | 0.00 | 77 | 1020.3 |
| 20260507181514 | 17 | 210 | 3.2 | 3.2 | 0.00 | 0.00 | 0.00 | 77 | 1020.3 |
| 20260507181014 | 17 | 253 | 3.2 | 3.2 | 0.00 | 0.00 | 0.00 | 76 | 1020.3 |
| 20260507180510 | 17 | 197 | 1.6 | 3.2 | 0.00 | 0.00 | 0.00 | 76 | 1020.3 |
| 20260507180032 | 17 | 201 | 3.2 | 3.2 | 0.00 | 0.00 | 0.00 | 76 | 1020.3 |
| 20260507175509 | 17 | 194 | 1.6 | 1.6 | 0.00 | 0.00 | 0.00 | 75 | 1020.3 |
| 20260507175015 | 17 | 207 | 3.2 | 3.2 | 0.00 | 0.00 | 0.00 | 75 | 1020.3 |
| 20260507174514 | 17 | 176 | 0.0 | 1.6 | 0.00 | 0.00 | 0.00 | 74 | 1020.3 |
| 20260507174013 | 17 | 161 | 0.0 | 0.0 | 0.00 | 0.00 | 0.00 | 74 | 1020.3 |
| 20260507173510 | 17 | 170 | 0.0 | 1.6 | 0.00 | 0.00 | 0.00 | 72 | 1020.3 |
| 20260507173025 | 18 | 176 | 1.6 | 1.6 | 0.00 | 0.00 | 0.00 | 70 | 1020.3 |
| 20260507172509 | 18 | 177 | 1.6 | 1.6 | 0.00 | 0.00 | 0.00 | 69 | 1020.3 |
| 20260507171513 | 18 | 165 | 0.0 | 0.0 | 0.00 | 0.00 | 0.00 | 68 | 1020.3 |
| 20260507171013 | 18 | 156 | 0.0 | 0.0 | 0.00 | 0.00 | 0.00 | 66 | 1020.0 |
| 20260507170510 | 18 | 170 | 0.0 | 0.0 | 0.00 | 0.00 | 0.00 | 66 | 1020.0 |
| 20260507170034 | 18 | 161 | 0.0 | 0.0 | 0.00 | 0.00 | 0.00 | 65 | 1020.0 |
| 20260507165510 | 18 | 155 | 0.0 | 0.0 | 0.00 | 0.00 | 0.00 | 66 | 1020.0 |
| 20260507165013 | 18 | 157 | 0.0 | 1.6 | 0.00 | 0.00 | 0.00 | 65 | 1020.0 |
| 20260507164513 | 18 | 168 | 0.0 | 0.0 | 0.00 | 0.00 | 0.00 | 66 | 1020.0 |
| 20260507164013 | 18 | 155 | 0.0 | 0.0 | 0.00 | 0.00 | 0.00 | 65 | 1020.0 |
| 20260507163510 | 20 | 172 | 0.0 | 0.0 | 0.00 | 0.00 | 0.00 | 64 | 1020.0 |
| 20260507163024 | 20 | 149 | 1.6 | 1.6 | 0.00 | 0.00 | 0.00 | 64 | 1020.0 |
| 20260507162510 | 20 | 140 | 0.0 | 1.6 | 0.00 | 0.00 | 0.00 | 64 | 1020.0 |
| 20260507162013 | 20 | 163 | 0.0 | 0.0 | 0.00 | 0.00 | 0.00 | 63 | 1020.0 |
| 20260507161513 | 20 | 157 | 0.0 | 1.6 | 0.00 | 0.00 | 0.00 | 61 | 1020.0 |
| 20260507160510 | 21 | 122 | 1.6 | 1.6 | 0.00 | 0.00 | 0.00 | 60 | 1020.0 |
| 20260507155510 | 22 | 154 | 0.0 | 0.0 | 0.00 | 0.00 | 0.00 | 58 | 1020.0 |
| 20260507155013 | 22 | 171 | 0.0 | 1.6 | 0.00 | 0.00 | 0.00 | 58 | 1020.0 |
| 20260507154515 | 22 | 157 | 1.6 | 1.6 | 0.00 | 0.00 | 0.00 | 54 | 1020.0 |
| 20260507154014 | 22 | 136 | 0.0 | 1.6 | 0.00 | 0.00 | 0.00 | 56 | 1020.0 |
| 20260507153509 | 22 | 146 | 1.6 | 1.6 | 0.00 | 0.00 | 0.00 | 54 | 1020.0 |
| 20260507153024 | 23 | 145 | 1.6 | 1.6 | 0.00 | 0.00 | 0.00 | 54 | 1020.0 |
| 20260507152509 | 22 | 155 | 1.6 | 1.6 | 0.00 | 0.00 | 0.00 | 54 | 1020.0 |
| 20260507152013 | 22 | 140 | 1.6 | 3.2 | 0.00 | 0.00 | 0.00 | 53 | 1020.3 |
| 20260507151513 | 23 | 164 | 1.6 | 1.6 | 0.00 | 0.00 | 0.00 | 52 | 1020.3 |
| 20260507151014 | 23 | 169 | 1.6 | 1.6 | 0.00 | 0.00 | 0.00 | 52 | 1020.3 |
| 20260507150510 | 23 | 166 | 1.6 | 1.6 | 0.00 | 0.00 | 0.00 | 52 | 1020.3 |
| 20260507150033 | 23 | 160 | 1.6 | 1.6 | 0.00 | 0.00 | 0.00 | 52 | 1020.3 |
| 20260507145509 | 23 | 168 | 0.0 | 1.6 | 0.00 | 0.00 | 0.00 | 54 | 1020.3 |
| 20260507145013 | 23 | 162 | 0.0 | 1.6 | 0.00 | 0.00 | 0.00 | 51 | 1020.3 |
| 20260507144513 | 23 | 164 | 0.0 | 1.6 | 0.00 | 0.00 | 0.00 | 51 | 1020.7 |
| 20260507143511 | 23 | 155 | 0.0 | 1.6 | 0.00 | 0.00 | 0.00 | 51 | 1020.7 |
| 20260507143028 | 23 | 121 | 1.6 | 1.6 | 0.00 | 0.00 | 0.00 | 50 | 1020.7 |
| 20260507142509 | 23 | 120 | 0.0 | 1.6 | 0.00 | 0.00 | 0.00 | 52 | 1020.7 |
| 20260507142013 | 23 | 133 | 1.6 | 1.6 | 0.00 | 0.00 | 0.00 | 53 | 1020.7 |
| 20260507141513 | 25 | 158 | 0.0 | 1.6 | 0.00 | 0.00 | 0.00 | 51 | 1020.7 |
| 20260507141013 | 25 | 155 | 1.6 | 1.6 | 0.00 | 0.00 | 0.00 | 51 | 1020.7 |
| 20260507140509 | 25 | 157 | 0.0 | 1.6 | 0.00 | 0.00 | 0.00 | 51 | 1020.7 |
| 20260507140032 | 25 | 147 | 1.6 | 1.6 | 0.00 | 0.00 | 0.00 | 50 | 1020.7 |
| 20260507135510 | 25 | 160 | 0.0 | 1.6 | 0.00 | 0.00 | 0.00 | 49 | 1020.7 |
| 20260507135014 | 25 | 128 | 3.2 | 3.2 | 0.00 | 0.00 | 0.00 | 50 | 1020.7 |
| 20260507134512 | 26 | 154 | 1.6 | 1.6 | 0.00 | 0.00 | 0.00 | 47 | 1021.0 |
| 20260507133023 | 27 | 151 | 1.6 | 1.6 | 0.00 | 0.00 | 0.00 | 46 | 1021.0 |
| 20260507132509 | 27 | 165 | 1.6 | 1.6 | 0.00 | 0.00 | 0.00 | 47 | 1021.0 |
| 20260507132013 | 27 | 152 | 0.0 | 1.6 | 0.00 | 0.00 | 0.00 | 45 | 1021.0 |
| 20260507131513 | 27 | 213 | 0.0 | 1.6 | 0.00 | 0.00 | 0.00 | 47 | 1021.0 |
| 20260507130510 | 26 | 135 | 0.0 | 1.6 | 0.00 | 0.00 | 0.00 | 47 | 1021.7 |
| 20260507130033 | 27 | 168 | 0.0 | 1.6 | 0.00 | 0.00 | 0.00 | 46 | 1021.7 |
| 20260507125510 | 27 | 180 | 0.0 | 1.6 | 0.00 | 0.00 | 0.00 | 48 | 1021.7 |
| 20260507125014 | 26 | 172 | 1.6 | 1.6 | 0.00 | 0.00 | 0.00 | 49 | 1021.7 |
| 20260507124514 | 25 | 141 | 3.2 | 3.2 | 0.00 | 0.00 | 0.00 | 49 | 1021.7 |
| 20260507124013 | 26 | 129 | 1.6 | 1.6 | 0.00 | 0.00 | 0.00 | 49 | 1021.7 |
| 20260507123509 | 26 | 165 | 0.0 | 1.6 | 0.00 | 0.00 | 0.00 | 48 | 1021.7 |
| 20260507123024 | 26 | 146 | 1.6 | 1.6 | 0.00 | 0.00 | 0.00 | 50 | 1021.7 |
| 20260507122510 | 25 | 140 | 1.6 | 1.6 | 0.00 | 0.00 | 0.00 | 52 | 1021.7 |
| 20260507122013 | 26 | 151 | 1.6 | 1.6 | 0.00 | 0.00 | 0.00 | 48 | 1021.7 |
| 20260507121513 | 26 | 159 | 1.6 | 1.6 | 0.00 | 0.00 | 0.00 | 49 | 1021.7 |
| 20260507121014 | 27 | 171 | 0.0 | 1.6 | 0.00 | 0.00 | 0.00 | 48 | 1021.7 |
| 20260507120510 | 26 | 156 | 1.6 | 1.6 | 0.00 | 0.00 | 0.00 | 50 | 1021.7 |
| 20260507120033 | 26 | 143 | 1.6 | 1.6 | 0.00 | 0.00 | 0.00 | 50 | 1021.7 |
| 20260507115509 | 25 | 164 | 1.6 | 3.2 | 0.00 | 0.00 | 0.00 | 51 | 1021.7 |
| 20260507115014 | 25 | 157 | 1.6 | 1.6 | 0.00 | 0.00 | 0.00 | 51 | 1021.7 |
| 20260507114513 | 26 | 153 | 0.0 | 1.6 | 0.00 | 0.00 | 0.00 | 50 | 1021.7 |
| 20260507114014 | 26 | 158 | 1.6 | 1.6 | 0.00 | 0.00 | 0.00 | 49 | 1021.7 |
| 20260507113509 | 27 | 168 | 1.6 | 1.6 | 0.00 | 0.00 | 0.00 | 48 | 1021.7 |
| 20260507113024 | 25 | 169 | 0.0 | 1.6 | 0.00 | 0.00 | 0.00 | 52 | 1021.7 |
| 20260507112509 | 25 | 135 | 0.0 | 1.6 | 0.00 | 0.00 | 0.00 | 53 | 1021.7 |
| 20260507112013 | 26 | 144 | 1.6 | 3.2 | 0.00 | 0.00 | 0.00 | 52 | 1022.0 |
| 20260507111513 | 26 | 155 | 1.6 | 1.6 | 0.00 | 0.00 | 0.00 | 51 | 1022.0 |
| 20260507111013 | 25 | 160 | 1.6 | 1.6 | 0.00 | 0.00 | 0.00 | 52 | 1022.0 |
| 20260507110509 | 25 | 138 | 1.6 | 1.6 | 0.00 | 0.00 | 0.00 | 53 | 1022.0 |
| 20260507110032 | 25 | 161 | 1.6 | 1.6 | 0.00 | 0.00 | 0.00 | 52 | 1022.0 |
| 20260507105509 | 23 | 87 | 3.2 | 3.2 | 0.00 | 0.00 | 0.00 | 54 | 1022.4 |
| 20260507105013 | 23 | 183 | 3.2 | 3.2 | 0.00 | 0.00 | 0.00 | 54 | 1022.4 |
| 20260507104512 | 23 | 155 | 1.6 | 1.6 | 0.00 | 0.00 | 0.00 | 57 | 1022.4 |
| 20260507104014 | 22 | 172 | 1.6 | 1.6 | 0.00 | 0.00 | 0.00 | 57 | 1022.4 |
| 20260507103510 | 23 | 129 | 1.6 | 1.6 | 0.00 | 0.00 | 0.00 | 55 | 1022.4 |
| 20260507103025 | 23 | 155 | 1.6 | 1.6 | 0.00 | 0.00 | 0.00 | 55 | 1022.4 |
| 20260507102510 | 23 | 117 | 3.2 | 4.8 | 0.00 | 0.00 | 0.00 | 54 | 1022.4 |
| 20260507102013 | 23 | 162 | 1.6 | 1.6 | 0.00 | 0.00 | 0.00 | 56 | 1022.4 |
| 20260507101513 | 23 | 151 | 3.2 | 3.2 | 0.00 | 0.00 | 0.00 | 55 | 1022.4 |
| 20260507101013 | 23 | 125 | 1.6 | 3.2 | 0.00 | 0.00 | 0.00 | 56 | 1022.4 |
| 20260507100509 | 22 | 180 | 1.6 | 1.6 | 0.00 | 0.00 | 0.00 | 58 | 1022.4 |
| 20260507100031 | 22 | 159 | 0.0 | 1.6 | 0.00 | 0.00 | 0.00 | 58 | 1022.4 |
| 20260507095509 | 22 | 176 | 1.6 | 1.6 | 0.00 | 0.00 | 0.00 | 60 | 1022.4 |
| 20260507095013 | 21 | 160 | 1.6 | 1.6 | 0.00 | 0.00 | 0.00 | 63 | 1022.4 |
| 20260507094513 | 21 | 155 | 1.6 | 1.6 | 0.00 | 0.00 | 0.00 | 62 | 1022.4 |
| 20260507094014 | 22 | 142 | 0.0 | 1.6 | 0.00 | 0.00 | 0.00 | 58 | 1022.4 |
| 20260507093509 | 22 | 152 | 1.6 | 3.2 | 0.00 | 0.00 | 0.00 | 58 | 1022.0 |
| 20260507093023 | 23 | 171 | 1.6 | 1.6 | 0.00 | 0.00 | 0.00 | 55 | 1022.0 |
| 20260507092509 | 22 | 148 | 0.0 | 1.6 | 0.00 | 0.00 | 0.00 | 57 | 1022.0 |
| 20260507092013 | 22 | 165 | 1.6 | 1.6 | 0.00 | 0.00 | 0.00 | 57 | 1021.7 |
| 20260507091513 | 22 | 168 | 1.6 | 1.6 | 0.00 | 0.00 | 0.00 | 58 | 1021.7 |
| 20260507091013 | 23 | 138 | 1.6 | 3.2 | 0.00 | 0.00 | 0.00 | 54 | 1021.7 |
| 20260507090509 | 23 | 140 | 0.0 | 1.6 | 0.00 | 0.00 | 0.00 | 54 | 1021.7 |
| 20260507090032 | 23 | 203 | 0.0 | 1.6 | 0.00 | 0.00 | 0.00 | 55 | 1021.7 |
| 20260507085508 | 22 | 142 | 1.6 | 1.6 | 0.00 | 0.00 | 0.00 | 57 | 1021.7 |
| 20260507085013 | 23 | 169 | 1.6 | 1.6 | 0.00 | 0.00 | 0.00 | 56 | 1021.7 |
| 20260507084513 | 23 | 155 | 1.6 | 1.6 | 0.00 | 0.00 | 0.00 | 55 | 1021.7 |
| 20260507084013 | 23 | 161 | 0.0 | 1.6 | 0.00 | 0.00 | 0.00 | 54 | 1021.7 |
| 20260507083509 | 22 | 129 | 3.2 | 3.2 | 0.00 | 0.00 | 0.00 | 55 | 1021.7 |
| 20260507083022 | 22 | 146 | 0.0 | 1.6 | 0.00 | 0.00 | 0.00 | 57 | 1021.7 |
| 20260507082509 | 22 | 158 | 1.6 | 3.2 | 0.00 | 0.00 | 0.00 | 56 | 1021.7 |
| 20260507082013 | 22 | 131 | 1.6 | 3.2 | 0.00 | 0.00 | 0.00 | 57 | 1021.7 |
| 20260507081514 | 23 | 133 | 0.0 | 0.0 | 0.00 | 0.00 | 0.00 | 56 | 1021.7 |
| 20260507081013 | 22 | 168 | 1.6 | 1.6 | 0.00 | 0.00 | 0.00 | 57 | 1021.7 |
| 20260507080509 | 22 | 165 | 0.0 | 1.6 | 0.00 | 0.00 | 0.00 | 55 | 1021.7 |
| 20260507080031 | 22 | 165 | 1.6 | 1.6 | 0.00 | 0.00 | 0.00 | 58 | 1021.7 |
| 20260507075509 | 22 | 170 | 1.6 | 6.4 | 0.00 | 0.00 | 0.00 | 57 | 1021.7 |
| 20260507075013 | 22 | 107 | 0.0 | 1.6 | 0.00 | 0.00 | 0.00 | 55 | 1021.7 |
| 20260507074513 | 22 | 138 | 4.8 | 6.4 | 0.00 | 0.00 | 0.00 | 56 | 1021.7 |
| 20260507074013 | 22 | 154 | 0.0 | 1.6 | 0.00 | 0.00 | 0.00 | 58 | 1021.7 |
| 20260507073509 | 22 | 162 | 0.0 | 1.6 | 0.00 | 0.00 | 0.00 | 57 | 1022.0 |
| 20260507073024 | 22 | 147 | 0.0 | 0.0 | 0.00 | 0.00 | 0.00 | 57 | 1022.0 |
| 20260507072509 | 22 | 154 | 0.0 | 1.6 | 0.00 | 0.00 | 0.00 | 56 | 1022.0 |
| 20260507072014 | 22 | 168 | 0.0 | 1.6 | 0.00 | 0.00 | 0.00 | 59 | 1022.0 |
| 20260507071513 | 22 | 167 | 1.6 | 3.2 | 0.00 | 0.00 | 0.00 | 58 | 1022.0 |
| 20260507071014 | 22 | 162 | 0.0 | 0.0 | 0.00 | 0.00 | 0.00 | 58 | 1021.7 |
| 20260507070510 | 22 | 156 | 0.0 | 0.0 | 0.00 | 0.00 | 0.00 | 60 | 1021.7 |
| 20260507070033 | 21 | 175 | 1.6 | 1.6 | 0.00 | 0.00 | 0.00 | 60 | 1021.7 |
| 20260507065511 | 22 | 165 | 0.0 | 1.6 | 0.00 | 0.00 | 0.00 | 59 | 1021.7 |
| 20260507065014 | 21 | 166 | 3.2 | 3.2 | 0.00 | 0.00 | 0.00 | 59 | 1021.7 |
| 20260507064514 | 21 | 164 | 0.0 | 0.0 | 0.00 | 0.00 | 0.00 | 59 | 1021.7 |
| 20260507064014 | 22 | 164 | 0.0 | 0.0 | 0.00 | 0.00 | 0.00 | 58 | 1021.7 |
| 20260507063509 | 21 | 164 | 0.0 | 0.0 | 0.00 | 0.00 | 0.00 | 61 | 1021.7 |
| 20260507063023 | 20 | 168 | 0.0 | 0.0 | 0.00 | 0.00 | 0.00 | 66 | 1021.7 |
| 20260507062510 | 18 | 163 | 0.0 | 1.6 | 0.00 | 0.00 | 0.00 | 66 | 1021.7 |
| 20260507062013 | 18 | 155 | 1.6 | 1.6 | 0.00 | 0.00 | 0.00 | 69 | 1021.0 |
| 20260507061512 | 20 | 173 | 0.0 | 0.0 | 0.00 | 0.00 | 0.00 | 68 | 1021.0 |
| 20260507061013 | 18 | 166 | 0.0 | 0.0 | 0.00 | 0.00 | 0.00 | 72 | 1021.0 |
| 20260507060510 | 18 | 162 | 0.0 | 1.6 | 0.00 | 0.00 | 0.00 | 69 | 1021.0 |
| 20260507060034 | 18 | 166 | 0.0 | 0.0 | 0.00 | 0.00 | 0.00 | 69 | 1020.7 |
| 20260507055510 | 18 | 165 | 0.0 | 0.0 | 0.00 | 0.00 | 0.00 | 71 | 1020.7 |
| 20260507055014 | 17 | 168 | 0.0 | 0.0 | 0.00 | 0.00 | 0.00 | 73 | 1020.7 |
| 20260507054513 | 17 | 167 | 0.0 | 0.0 | 0.00 | 0.00 | 0.00 | 77 | 1020.7 |
| 20260507054013 | 17 | 177 | 0.0 | 0.0 | 0.00 | 0.00 | 0.00 | 77 | 1020.7 |
| 20260507053509 | 16 | 188 | 1.6 | 3.2 | 0.00 | 0.00 | 0.00 | 81 | 1020.7 |
| 20260507053022 | 15 | 244 | 4.8 | 4.8 | 0.00 | 0.00 | 0.00 | 81 | 1020.7 |
| 20260507052509 | 15 | 235 | 1.6 | 1.6 | 0.00 | 0.00 | 0.00 | 82 | 1020.7 |
| 20260507052014 | 15 | 207 | 3.2 | 3.2 | 0.00 | 0.00 | 0.00 | 82 | 1020.7 |
| 20260507051513 | 15 | 240 | 3.2 | 3.2 | 0.00 | 0.00 | 0.00 | 83 | 1020.7 |
| 20260507051014 | 13 | 273 | 3.2 | 3.2 | 0.00 | 0.00 | 0.00 | 85 | 1020.7 |
| 20260507050031 | 13 | 232 | 3.2 | 4.8 | 0.00 | 0.00 | 0.00 | 86 | 1020.3 |
| 20260507045509 | 12 | 209 | 3.2 | 4.8 | 0.00 | 0.00 | 0.00 | 89 | 1020.3 |
| 20260507045013 | 12 | 206 | 1.6 | 1.6 | 0.00 | 0.00 | 0.00 | 88 | 1020.3 |
| 20260507043509 | 12 | 181 | 1.6 | 3.2 | 0.00 | 0.00 | 0.00 | 88 | 1020.3 |
| 20260507043023 | 12 | 260 | 1.6 | 4.8 | 0.00 | 0.00 | 0.00 | 88 | 1020.3 |
| 20260507042509 | 12 | 218 | 3.2 | 4.8 | 0.00 | 0.00 | 0.00 | 89 | 1020.3 |
| 20260507042013 | 12 | 192 | 1.6 | 1.6 | 0.00 | 0.00 | 0.00 | 89 | 1020.0 |
| 20260507041513 | 12 | 213 | 1.6 | 3.2 | 0.00 | 0.00 | 0.00 | 89 | 1020.0 |
| 20260507041013 | 12 | 183 | 1.6 | 1.6 | 0.00 | 0.00 | 0.00 | 88 | 1020.3 |
| 20260507040509 | 12 | 187 | 3.2 | 3.2 | 0.00 | 0.00 | 0.00 | 88 | 1020.3 |
| 20260507040033 | 12 | 191 | 3.2 | 3.2 | 0.00 | 0.00 | 0.00 | 88 | 1020.3 |
| 20260507035509 | 12 | 178 | 1.6 | 1.6 | 0.00 | 0.00 | 0.00 | 88 | 1020.3 |
| 20260507035013 | 13 | 254 | 3.2 | 3.2 | 0.00 | 0.00 | 0.00 | 88 | 1020.3 |
| 20260507034512 | 12 | 264 | 1.6 | 1.6 | 0.00 | 0.00 | 0.00 | 89 | 1020.3 |
| 20260507034013 | 12 | 183 | 0.0 | 1.6 | 0.00 | 0.00 | 0.00 | 90 | 1020.3 |
| 20260507033509 | 13 | 178 | 0.0 | 1.6 | 0.00 | 0.00 | 0.00 | 90 | 1020.3 |
| 20260507033022 | 13 | 244 | 3.2 | 3.2 | 0.00 | 0.00 | 0.00 | 89 | 1020.3 |
| 20260507032510 | 13 | 216 | 3.2 | 4.8 | 0.00 | 0.00 | 0.00 | 89 | 1020.3 |
| 20260507032012 | 13 | 165 | 1.6 | 3.2 | 0.00 | 0.00 | 0.00 | 89 | 1020.0 |
| 20260507031512 | 13 | 261 | 3.2 | 6.4 | 0.00 | 0.00 | 0.00 | 90 | 1020.0 |
| 20260507031013 | 13 | 206 | 3.2 | 4.8 | 0.00 | 0.00 | 0.00 | 91 | 1020.3 |
| 20260507030509 | 13 | 199 | 3.2 | 3.2 | 0.00 | 0.00 | 0.00 | 91 | 1020.3 |
| 20260507030032 | 13 | 248 | 3.2 | 4.8 | 0.00 | 0.00 | 0.00 | 91 | 1020.3 |
| 20260507025509 | 13 | 247 | 1.6 | 1.6 | 0.00 | 0.00 | 0.00 | 91 | 1020.3 |
| 20260507025013 | 13 | 236 | 3.2 | 4.8 | 0.00 | 0.00 | 0.00 | 90 | 1020.3 |
| 20260507024514 | 13 | 249 | 4.8 | 6.4 | 0.00 | 0.00 | 0.00 | 91 | 1020.3 |
| 20260507024013 | 13 | 269 | 6.4 | 8.0 | 0.00 | 0.00 | 0.00 | 91 | 1020.3 |
| 20260507023509 | 13 | 180 | 1.6 | 1.6 | 0.00 | 0.00 | 0.00 | 91 | 1020.0 |
| 20260507023022 | 13 | 252 | 3.2 | 4.8 | 0.00 | 0.00 | 0.00 | 91 | 1020.0 |
| 20260507022510 | 13 | 194 | 1.6 | 3.2 | 0.00 | 0.00 | 0.00 | 91 | 1020.0 |
| 20260507022013 | 13 | 239 | 3.2 | 3.2 | 0.00 | 0.00 | 0.00 | 91 | 1020.3 |
| 20260507021512 | 13 | 180 | 1.6 | 1.6 | 0.00 | 0.00 | 0.00 | 92 | 1020.3 |
| 20260507021013 | 13 | 180 | 1.6 | 1.6 | 0.00 | 0.00 | 0.00 | 92 | 1020.3 |
| 20260507020509 | 13 | 267 | 4.8 | 4.8 | 0.00 | 0.00 | 0.00 | 91 | 1020.3 |
| 20260507020032 | 15 | 224 | 4.8 | 4.8 | 0.00 | 0.00 | 0.00 | 91 | 1020.0 |
| 20260507015510 | 15 | 292 | 4.8 | 4.8 | 0.00 | 0.00 | 0.00 | 90 | 1020.0 |
| 20260507015013 | 15 | 215 | 1.6 | 1.6 | 0.00 | 0.00 | 0.00 | 90 | 1020.0 |
| 20260507014513 | 15 | 172 | 0.0 | 0.0 | 0.00 | 0.00 | 0.00 | 90 | 1020.0 |
| 20260507014015 | 15 | 176 | 1.6 | 1.6 | 0.00 | 0.00 | 0.00 | 90 | 1020.0 |
| 20260507013510 | 15 | 249 | 3.2 | 4.8 | 0.00 | 0.00 | 0.00 | 90 | 1020.0 |
| 20260507013022 | 15 | 166 | 1.6 | 1.6 | 0.00 | 0.00 | 0.00 | 90 | 1020.0 |
| 20260507012509 | 15 | 233 | 3.2 | 3.2 | 0.00 | 0.00 | 0.00 | 89 | 1020.0 |
| 20260507012014 | 15 | 177 | 0.0 | 0.0 | 0.00 | 0.00 | 0.00 | 88 | 1020.0 |
| 20260507011512 | 15 | 182 | 1.6 | 1.6 | 0.00 | 0.00 | 0.00 | 88 | 1020.0 |
| 20260507011012 | 15 | 168 | 0.0 | 0.0 | 0.00 | 0.00 | 0.00 | 87 | 1020.0 |
| 20260507010509 | 15 | 180 | 1.6 | 1.6 | 0.00 | 0.00 | 0.00 | 87 | 1020.0 |
| 20260507010033 | 15 | 168 | 0.0 | 1.6 | 0.00 | 0.00 | 0.00 | 86 | 1020.0 |